Time;durP1;ratioP1;P1;durP2;ratioP2;P2;SDS_P1;SDS_P2;PMS_P1;PMS_P2;Temp;Humidity;BMP_temperature;BMP_pressure;BME280_temperature;BME280_humidity;BME280_pressure;Samples;Min_cycle;Max_cycle;Signal;HPM_P1;HPM_P2
2022/03/26 00:00:45;;;;;;;79.88;29.85;;;;;;;8.41;34.67;95812.16;5079017;28;20039;-76
2022/03/26 00:03:30;;;;;;;73.35;29.98;;;;;;;8.31;34.25;95797.94;5043706;28;20573;-76
2022/03/26 00:05:55;;;;;;;80.35;32.10;;;;;;;8.36;35.40;95814.53;5069263;28;20070;-76
2022/03/26 00:08:21;;;;;;;83.03;35.40;;;;;;;8.34;35.64;95824.28;5079243;28;20029;-76
2022/03/26 00:10:46;;;;;;;85.93;35.42;;;;;;;8.29;35.73;95815.44;5044020;28;20412;-76
2022/03/26 00:13:12;;;;;;;80.00;34.88;;;;;;;8.24;36.11;95808.25;5028175;28;20081;-76
2022/03/26 00:15:37;;;;;;;99.15;37.55;;;;;;;8.24;36.64;95813.44;5060725;28;20036;-76
2022/03/26 00:18:03;;;;;;;82.60;35.42;;;;;;;8.17;36.78;95812.63;5079165;28;20043;-76
2022/03/26 00:20:28;;;;;;;86.85;36.85;;;;;;;8.16;36.54;95818.78;5077689;28;20040;-76
2022/03/26 00:22:53;;;;;;;108.03;40.28;;;;;;;8.10;36.65;95817.75;5061740;28;20402;-76
2022/03/26 00:25:19;;;;;;;85.35;37.88;;;;;;;8.05;36.61;95825.31;5047597;28;20028;-76
2022/03/26 00:27:44;;;;;;;104.18;38.90;;;;;;;7.99;36.29;95815.72;5082336;28;20164;-76
2022/03/26 00:30:11;;;;;;;92.38;41.03;;;;;;;7.89;37.00;95819.63;5064027;28;20028;-77
2022/03/26 00:32:36;;;;;;;102.35;43.00;;;;;;;7.92;36.98;95814.06;5049284;28;20024;-77
2022/03/26 00:35:02;;;;;;;71.05;31.52;;;;;;;7.83;37.02;95811.63;5052741;28;20032;-76
2022/03/26 00:37:28;;;;;;;101.10;40.33;;;;;;;7.81;37.40;95812.81;5084177;28;20028;-76
2022/03/26 00:39:53;;;;;;;103.68;40.67;;;;;;;7.80;38.19;95816.38;5064333;28;20020;-77
2022/03/26 00:42:19;;;;;;;84.38;35.78;;;;;;;7.70;37.54;95815.94;5062912;28;20028;-77
2022/03/26 00:44:44;;;;;;;70.20;28.77;;;;;;;7.67;37.31;95822.28;5029832;28;20144;-77
2022/03/26 00:47:10;;;;;;;81.88;33.13;;;;;;;7.71;37.87;95828.69;5062962;28;20032;-76
2022/03/26 00:49:35;;;;;;;78.00;35.10;;;;;;;7.72;38.03;95825.09;5081931;28;20035;-77
2022/03/26 00:52:01;;;;;;;90.15;36.53;;;;;;;7.69;38.15;95830.66;5047456;28;20043;-77
2022/03/26 00:54:27;;;;;;;91.43;38.70;;;;;;;7.61;37.97;95830.78;5063397;28;20044;-76
2022/03/26 00:56:52;;;;;;;123.68;53.72;;;;;;;7.51;38.08;95838.09;5064274;28;20533;-76
2022/03/26 00:59:17;;;;;;;220.80;103.55;;;;;;;7.43;38.41;95835.63;5082956;28;20028;-76
2022/03/26 01:01:43;;;;;;;174.43;82.63;;;;;;;7.37;37.73;95833.78;5030137;28;20036;-76
2022/03/26 01:04:08;;;;;;;139.10;64.97;;;;;;;7.26;38.12;95839.47;5046745;28;20043;-75
2022/03/26 01:06:34;;;;;;;106.80;52.40;;;;;;;7.17;38.67;95842.19;5063312;28;20047;-76
2022/03/26 01:08:59;;;;;;;106.88;40.67;;;;;;;7.13;38.71;95846.09;5064002;28;20048;-76
2022/03/26 01:11:25;;;;;;;63.40;31.55;;;;;;;7.11;39.04;95842.91;5089002;28;20566;-76
2022/03/26 01:13:53;;;;;;;51.28;28.05;;;;;;;7.11;38.91;95852.44;5063490;28;20031;-76
2022/03/26 01:16:19;;;;;;;51.33;24.30;;;;;;;7.09;38.90;95851.84;5063073;28;20039;-76
2022/03/26 01:18:44;;;;;;;48.55;22.95;;;;;;;7.03;39.12;95848.22;5046662;28;20032;-76
2022/03/26 01:21:10;;;;;;;50.17;24.85;;;;;;;7.07;39.36;95852.03;5063789;28;20510;-75
2022/03/26 01:23:35;;;;;;;62.10;27.55;;;;;;;7.02;39.51;95862.13;5062454;28;20024;-76
2022/03/26 01:26:02;;;;;;;64.00;27.13;;;;;;;6.96;39.88;95854.28;5030033;28;20028;-76
2022/03/26 01:28:28;;;;;;;46.20;23.85;;;;;;;6.96;39.69;95862.84;5063071;28;20070;-76
2022/03/26 01:30:53;;;;;;;58.97;24.17;;;;;;;6.91;39.55;95867.78;5062889;28;20024;-76
2022/03/26 01:33:19;;;;;;;56.85;22.25;;;;;;;6.86;39.67;95867.53;5063039;28;20035;-76
2022/03/26 01:35:44;;;;;;;57.63;22.20;;;;;;;6.80;39.60;95871.63;5062255;28;20721;-75
2022/03/26 01:38:10;;;;;;;63.00;32.90;;;;;;;6.74;39.39;95867.19;5063280;28;20038;-75
2022/03/26 01:40:35;;;;;;;68.20;35.42;;;;;;;6.64;39.59;95871.84;5045854;28;20047;-75
2022/03/26 01:43:01;;;;;;;101.95;49.78;;;;;;;6.55;39.70;95868.56;5081128;28;20037;-75
2022/03/26 01:45:29;;;;;;;118.00;59.75;;;;;;;6.53;40.25;95870.53;5046447;28;20090;-75
2022/03/26 01:47:55;;;;;;;131.35;65.43;;;;;;;6.46;40.22;95867.06;5047265;28;20488;-76
2022/03/26 01:50:21;;;;;;;109.90;51.88;;;;;;;6.32;40.53;95867.84;5061469;28;20032;-75
2022/03/26 01:52:47;;;;;;;97.60;46.90;;;;;;;6.31;41.05;95872.22;5046221;28;20020;-76
2022/03/26 01:55:13;;;;;;;81.03;42.28;;;;;;;6.30;40.91;95862.06;5062932;28;20032;-76
2022/03/26 01:57:38;;;;;;;95.60;46.03;;;;;;;6.27;41.10;95865.03;5062572;28;20028;-76
2022/03/26 02:00:05;;;;;;;105.45;51.75;;;;;;;6.28;40.76;95862.25;5030510;28;20066;-76
2022/03/26 02:02:31;;;;;;;103.53;51.47;;;;;;;6.27;41.64;95865.03;5060818;28;20032;-76
2022/03/26 02:04:57;;;;;;;114.05;59.05;;;;;;;6.21;41.50;95870.91;5080632;28;20608;-76
2022/03/26 02:07:23;;;;;;;115.78;54.58;;;;;;;6.23;41.67;95871.53;5080791;28;20028;-76
2022/03/26 02:09:49;;;;;;;114.28;54.25;;;;;;;6.21;41.57;95865.75;5061831;28;20667;-76
2022/03/26 02:12:28;;;;;;;99.13;46.53;;;;;;;6.13;41.73;95871.78;5045392;28;20036;-76
2022/03/26 02:14:54;;;;;;;97.63;44.80;;;;;;;6.12;42.12;95877.13;5044460;28;20039;-76
2022/03/26 02:17:20;;;;;;;89.25;41.47;;;;;;;6.03;42.08;95879.00;5070831;28;20040;-75
2022/03/26 02:19:52;;;;;;;81.55;40.97;;;;;;;6.04;41.52;95874.66;5045401;28;20036;-76
2022/03/26 02:22:20;;;;;;;83.18;41.38;;;;;;;6.08;41.49;95878.47;5045684;28;20107;-75
2022/03/26 02:24:45;;;;;;;85.20;37.97;;;;;;;6.03;41.62;95883.38;5062175;28;20036;-75
2022/03/26 02:27:11;;;;;;;85.70;35.40;;;;;;;6.01;41.62;95881.75;5080361;28;20036;-76
2022/03/26 02:29:36;;;;;;;72.40;31.48;;;;;;;6.01;41.48;95881.75;5061497;28;20039;-75
2022/03/26 02:32:02;;;;;;;57.13;28.75;;;;;;;6.00;42.04;95884.50;5079139;28;20049;-76
2022/03/26 02:34:27;;;;;;;61.20;28.75;;;;;;;5.90;42.01;95886.56;5061517;28;20039;-75
2022/03/26 02:36:56;;;;;;;61.63;28.05;;;;;;;5.85;41.92;95881.88;5061498;28;20488;-75
2022/03/26 02:39:22;;;;;;;59.88;27.90;;;;;;;5.88;42.48;95885.91;5062396;28;20024;-76
2022/03/26 02:41:47;;;;;;;79.50;28.23;;;;;;;5.90;41.86;95894.31;5062037;28;20492;-75
2022/03/26 02:44:12;;;;;;;66.35;26.52;;;;;;;5.82;42.26;95889.97;5062889;28;20028;-76
2022/03/26 02:46:38;;;;;;;60.05;26.20;;;;;;;5.79;42.81;95887.75;5044145;28;20043;-76
2022/03/26 02:49:09;;;;;;;51.30;24.70;;;;;;;5.76;42.42;95888.09;5059789;28;20398;-76
2022/03/26 02:51:35;;;;;;;48.30;21.38;;;;;;;5.80;42.47;95888.53;5044967;28;20033;-75
2022/03/26 02:54:00;;;;;;;45.88;19.80;;;;;;;5.79;42.41;95890.31;5061400;28;20063;-75
2022/03/26 02:56:25;;;;;;;44.72;19.33;;;;;;;5.75;42.44;95901.97;5079920;28;20024;-75
2022/03/26 02:58:51;;;;;;;45.78;20.15;;;;;;;5.66;43.22;95892.69;5061330;28;20495;-76
2022/03/26 03:01:16;;;;;;;42.25;21.55;;;;;;;5.65;42.93;95897.06;5028518;28;20040;-75
2022/03/26 03:03:42;;;;;;;50.35;22.45;;;;;;;5.66;43.36;95893.50;5061466;28;20641;-75
2022/03/26 03:06:07;;;;;;;64.20;24.85;;;;;;;5.66;43.29;95892.69;5044868;28;20035;-75
2022/03/26 03:08:33;;;;;;;49.58;23.33;;;;;;;5.68;42.41;95894.13;5044815;28;20033;-76
2022/03/26 03:10:58;;;;;;;61.00;30.30;;;;;;;5.63;43.41;95900.78;5061978;28;20029;-76
2022/03/26 03:13:24;;;;;;;63.95;30.80;;;;;;;5.61;43.00;95905.31;5045474;28;20048;-75
2022/03/26 03:15:50;;;;;;;62.85;31.75;;;;;;;5.59;43.26;95907.28;5061551;28;20032;-76
2022/03/26 03:18:15;;;;;;;74.28;36.97;;;;;;;5.57;44.24;95906.66;5059512;28;20033;-75
2022/03/26 03:20:41;;;;;;;83.75;38.08;;;;;;;5.57;43.60;95907.47;5043716;28;20032;-76
2022/03/26 03:23:06;;;;;;;59.95;32.35;;;;;;;5.57;43.19;95901.50;5061467;28;20048;-75
2022/03/26 03:25:32;;;;;;;81.07;42.63;;;;;;;5.54;43.48;95904.44;5079071;28;20032;-76
2022/03/26 03:28:00;;;;;;;82.30;44.22;;;;;;;5.49;43.43;95902.34;5062996;28;20042;-76
2022/03/26 03:30:26;;;;;;;65.68;33.58;;;;;;;5.43;44.16;95906.44;5052369;28;20035;-75
2022/03/26 03:32:51;;;;;;;44.05;23.73;;;;;;;5.50;43.17;95905.72;5080727;28;20024;-75
2022/03/26 03:35:17;;;;;;;77.07;42.65;;;;;;;5.48;44.04;95912.84;5045102;28;20047;-75
2022/03/26 03:37:43;;;;;;;142.43;59.75;;;;;;;5.31;44.12;95912.97;5078516;28;20033;-76
2022/03/26 03:40:13;;;;;;;137.48;63.65;;;;;;;5.24;44.00;95913.81;5060318;28;20486;-75
2022/03/26 03:42:38;;;;;;;132.30;66.05;;;;;;;5.24;44.22;95909.47;5061553;28;20043;-75
2022/03/26 03:45:04;;;;;;;107.75;55.70;;;;;;;5.19;43.85;95904.00;5029372;28;20032;-75
2022/03/26 03:47:30;;;;;;;92.70;46.10;;;;;;;5.20;44.09;95907.38;5064586;28;20024;-77
2022/03/26 03:49:55;;;;;;;85.65;44.40;;;;;;;5.16;44.47;95911.28;5077736;28;20036;-75
2022/03/26 03:52:21;;;;;;;93.07;48.40;;;;;;;5.08;44.50;95910.38;5060618;28;20025;-76
2022/03/26 03:54:46;;;;;;;94.45;50.83;;;;;;;5.07;44.63;95913.94;5060634;28;20032;-76
2022/03/26 03:57:12;;;;;;;91.63;51.10;;;;;;;5.08;44.85;95910.38;5060377;28;20071;-75
2022/03/26 03:59:41;;;;;;;71.90;41.20;;;;;;;5.05;44.37;95918.47;5060887;28;20433;-75
2022/03/26 04:02:09;;;;;;;81.25;45.97;;;;;;;5.01;44.36;95916.38;5060430;28;20033;-76
2022/03/26 04:04:36;;;;;;;76.63;41.00;;;;;;;4.96;45.06;95916.09;5060965;28;20028;-75
2022/03/26 04:07:01;;;;;;;57.53;33.70;;;;;;;4.94;45.03;95923.19;5060806;28;20032;-76
2022/03/26 04:09:27;;;;;;;27.02;17.17;;;;;;;4.91;44.99;95923.53;5061813;28;20037;-75
2022/03/26 04:11:52;;;;;;;28.35;14.00;;;;;;;4.94;43.77;95921.41;5078724;28;20032;-75
2022/03/26 04:14:18;;;;;;;26.25;12.38;;;;;;;5.05;44.07;95931.34;5045036;28;20504;-75
2022/03/26 04:16:43;;;;;;;26.05;13.60;;;;;;;5.10;43.46;95933.41;5060894;28;20515;-75
2022/03/26 04:19:09;;;;;;;24.15;12.45;;;;;;;5.17;43.46;95938.69;5060989;28;20039;-76
2022/03/26 04:21:35;;;;;;;23.50;13.35;;;;;;;5.19;43.01;95937.53;5061899;28;20078;-75
2022/03/26 04:24:00;;;;;;;45.65;15.90;;;;;;;5.20;43.65;95940.91;5078462;28;20036;-75
2022/03/26 04:26:26;;;;;;;27.10;14.73;;;;;;;5.25;43.18;95941.22;5078850;28;20606;-75
2022/03/26 04:28:51;;;;;;;47.00;15.48;;;;;;;5.24;42.97;95940.41;5043312;28;20024;-76
2022/03/26 04:31:17;;;;;;;29.50;14.00;;;;;;;5.30;43.54;95947.47;5060095;28;20488;-75
2022/03/26 04:33:42;;;;;;;36.10;16.05;;;;;;;5.34;42.80;95945.34;5078700;28;20028;-75
2022/03/26 04:36:08;;;;;;;28.80;15.82;;;;;;;5.41;42.85;95944.50;5076395;28;20479;-75
2022/03/26 04:38:33;;;;;;;40.03;19.33;;;;;;;5.49;42.46;95953.13;5043354;28;20074;-75
2022/03/26 04:40:59;;;;;;;70.65;33.03;;;;;;;5.67;42.82;95958.81;5060098;28;20029;-75
2022/03/26 04:43:24;;;;;;;86.03;42.75;;;;;;;5.78;42.88;95961.00;5078462;28;20028;-75
2022/03/26 04:45:50;;;;;;;53.75;23.83;;;;;;;5.98;42.31;95963.91;5027574;28;20061;-75
2022/03/26 04:48:15;;;;;;;39.20;19.23;;;;;;;6.23;40.87;95961.94;5044079;28;20044;-76
2022/03/26 04:50:40;;;;;;;46.63;20.75;;;;;;;6.54;40.82;95965.16;5060069;28;20060;-76
2022/03/26 04:53:06;;;;;;;32.58;17.20;;;;;;;6.97;39.84;95954.94;5059601;28;20070;-75
2022/03/26 04:55:31;;;;;;;42.45;17.95;;;;;;;7.57;38.42;95961.56;5078967;28;20086;-75
2022/03/26 04:57:57;;;;;;;38.72;18.85;;;;;;;8.33;37.09;95967.00;5030881;28;20166;-76
2022/03/26 05:00:22;;;;;;;46.00;19.13;;;;;;;9.15;35.34;95961.06;5060331;28;20420;-77
2022/03/26 05:02:48;;;;;;;46.40;19.40;;;;;;;10.09;33.92;95964.44;5043281;28;20408;-76
2022/03/26 05:05:14;;;;;;;38.63;19.70;;;;;;;11.05;32.71;95956.84;5042917;28;20494;-76
2022/03/26 05:07:45;;;;;;;38.78;17.08;;;;;;;11.99;30.58;95961.38;5060798;28;20059;-77
2022/03/26 05:10:15;;;;;;;42.03;17.83;;;;;;;12.88;28.82;95960.16;5067070;28;20056;-77
2022/03/26 05:12:42;;;;;;;31.30;16.58;;;;;;;13.78;27.37;95965.47;5030218;28;20044;-76
2022/03/26 05:15:08;;;;;;;37.33;17.70;;;;;;;14.27;27.04;95960.91;5063758;28;20578;-76
2022/03/26 05:17:35;;;;;;;33.70;19.42;;;;;;;14.85;26.52;95962.75;5081493;28;20033;-77
2022/03/26 05:20:00;;;;;;;36.15;19.23;;;;;;;15.49;25.41;95953.00;5047485;28;20085;-77
2022/03/26 05:22:26;;;;;;;38.97;20.40;;;;;;;15.80;25.06;95961.44;5031207;28;20040;-76
2022/03/26 05:24:53;;;;;;;36.83;18.38;;;;;;;16.38;24.28;95957.66;5061097;28;20035;-76
2022/03/26 05:27:18;;;;;;;30.33;16.95;;;;;;;17.07;22.79;95951.00;5063666;28;20040;-77
2022/03/26 05:29:46;;;;;;;41.50;18.65;;;;;;;17.39;22.63;95958.19;5062679;28;20028;-77
2022/03/26 05:32:12;;;;;;;34.45;16.13;;;;;;;17.68;22.18;95956.19;5079526;28;20071;-76
2022/03/26 05:34:37;;;;;;;38.20;17.95;;;;;;;17.61;22.94;95966.09;5081029;28;20094;-76
2022/03/26 05:37:04;;;;;;;38.03;14.93;;;;;;;17.52;22.62;95962.28;5030172;28;20032;-76
2022/03/26 05:39:30;;;;;;;33.90;15.48;;;;;;;17.45;22.37;95962.50;5079850;28;20484;-77
2022/03/26 05:41:56;;;;;;;25.35;13.55;;;;;;;17.32;22.32;95965.50;5081162;28;20043;-77
2022/03/26 05:44:22;;;;;;;32.78;14.15;;;;;;;17.30;22.17;95971.00;5046217;28;20460;-76
2022/03/26 05:46:47;;;;;;;32.80;14.13;;;;;;;17.35;22.06;95962.38;5063291;28;20047;-77
2022/03/26 05:49:13;;;;;;;31.50;13.63;;;;;;;17.32;22.10;95976.00;5045799;28;20108;-76
2022/03/26 05:51:39;;;;;;;35.75;16.75;;;;;;;17.21;22.22;95975.09;5079030;28;20562;-76
2022/03/26 05:54:04;;;;;;;35.60;16.35;;;;;;;17.23;22.50;95978.25;5029797;28;20194;-76
2022/03/26 05:56:36;;;;;;;38.00;17.38;;;;;;;17.27;22.40;95979.38;5081119;28;20105;-78
2022/03/26 05:59:04;;;;;;;35.03;16.20;;;;;;;17.18;22.49;95972.94;5046479;28;20496;-77
2022/03/26 06:01:33;;;;;;;33.85;15.05;;;;;;;17.04;22.26;95974.34;5081126;28;20039;-77
2022/03/26 06:03:58;;;;;;;25.95;14.30;;;;;;;16.71;22.63;95973.38;5086960;28;20126;-77
2022/03/26 06:06:24;;;;;;;23.52;14.23;;;;;;;16.71;23.17;95983.91;5080423;28;20120;-77
2022/03/26 06:08:50;;;;;;;24.83;13.50;;;;;;;16.68;22.86;95979.13;5046297;28;20107;-77
2022/03/26 06:11:16;;;;;;;27.08;13.48;;;;;;;16.72;22.81;95982.84;5045559;28;20036;-77
2022/03/26 06:13:42;;;;;;;27.10;13.63;;;;;;;16.80;23.07;95982.47;5062035;28;20043;-77
2022/03/26 06:16:07;;;;;;;35.13;13.35;;;;;;;16.94;22.74;95977.66;5061506;28;20063;-76
2022/03/26 06:18:33;;;;;;;30.08;12.43;;;;;;;17.08;22.70;95988.59;5080352;28;20115;-77
2022/03/26 06:21:00;;;;;;;26.13;13.38;;;;;;;17.22;22.64;95987.19;5061551;28;20115;-76
2022/03/26 06:23:26;;;;;;;31.50;12.07;;;;;;;17.30;22.23;95981.53;5062933;28;20107;-76
2022/03/26 06:25:52;;;;;;;33.63;13.55;;;;;;;17.31;22.20;95980.47;5064097;28;20416;-77
2022/03/26 06:28:19;;;;;;;37.97;14.05;;;;;;;17.35;22.11;95988.66;5079157;28;20032;-77
2022/03/26 06:30:48;;;;;;;34.53;14.00;;;;;;;17.39;22.23;95989.75;5044296;28;20543;-77
2022/03/26 06:33:15;;;;;;;37.55;15.68;;;;;;;17.48;22.43;95982.25;5080263;28;20025;-77
2022/03/26 06:35:46;;;;;;;33.58;14.30;;;;;;;17.66;22.07;95984.53;5064539;28;20033;-77
2022/03/26 06:38:15;;;;;;;35.90;13.70;;;;;;;17.81;22.36;95987.34;5078459;28;20116;-78
2022/03/26 06:40:41;;;;;;;29.63;13.30;;;;;;;17.84;21.34;95991.31;5064049;28;20036;-77
2022/03/26 06:43:07;;;;;;;29.55;12.52;;;;;;;17.91;21.35;96002.47;5061779;28;20066;-78
2022/03/26 06:45:36;;;;;;;20.92;13.30;;;;;;;17.68;21.15;95993.00;5079976;28;20611;-77
2022/03/26 06:48:03;;;;;;;28.88;12.40;;;;;;;17.67;21.69;95988.75;5079745;28;20492;-76
2022/03/26 06:50:29;;;;;;;41.35;13.40;;;;;;;17.62;21.62;95993.97;5044736;28;20074;-76
2022/03/26 06:52:58;;;;;;;35.13;13.43;;;;;;;17.65;21.85;95996.09;5062785;28;20086;-76
2022/03/26 06:55:24;;;;;;;42.13;14.52;;;;;;;17.50;21.48;96001.19;5065872;28;20027;-79
2022/03/26 06:57:50;;;;;;;30.08;13.15;;;;;;;17.48;21.63;96000.66;5046102;28;20060;-78
2022/03/26 07:00:16;;;;;;;31.67;13.77;;;;;;;17.34;21.67;96000.22;5083304;28;20181;-77
2022/03/26 07:05:16;;;;;;;29.35;13.20;;;;;;;17.23;21.99;96006.38;5071033;22;20052;-77
2022/03/26 07:07:42;;;;;;;24.10;13.27;;;;;;;17.29;21.91;96005.44;5026385;28;20082;-77
2022/03/26 07:10:08;;;;;;;31.10;14.07;;;;;;;17.10;22.01;96002.31;5059987;28;20115;-76
2022/03/26 07:12:34;;;;;;;32.25;14.82;;;;;;;16.92;21.94;96011.25;5060631;28;20496;-77
2022/03/26 07:15:00;;;;;;;35.83;13.70;;;;;;;16.87;22.26;96013.81;5041066;28;20158;-77
2022/03/26 07:17:25;;;;;;;32.67;15.10;;;;;;;16.83;22.57;96019.78;5042474;28;20127;-77
2022/03/26 07:19:51;;;;;;;28.85;15.10;;;;;;;16.74;22.55;96017.56;5059922;28;20032;-77
2022/03/26 07:22:17;;;;;;;46.80;15.25;;;;;;;16.79;22.36;96022.91;5055566;28;20123;-77
2022/03/26 07:24:43;;;;;;;41.42;15.65;;;;;;;16.85;22.83;96015.09;5024780;28;20036;-76
2022/03/26 07:27:09;;;;;;;39.33;15.20;;;;;;;16.94;22.90;96017.06;5040920;28;20049;-77
2022/03/26 07:29:41;;;;;;;44.60;18.00;;;;;;;16.98;22.68;96014.75;5041696;28;20033;-77
2022/03/26 07:32:07;;;;;;;;;;;;;;;17.01;22.60;96024.78;5040858;28;20079;-77
2022/03/26 07:34:33;;;;;;;34.47;16.05;;;;;;;16.92;22.76;96015.69;5041285;28;20384;-77
2022/03/26 07:37:00;;;;;;;41.05;16.63;;;;;;;16.99;22.68;96021.59;5040405;28;20024;-77
2022/03/26 07:39:29;;;;;;;38.47;14.23;;;;;;;16.91;22.13;96022.00;5017735;28;20575;-76
2022/03/26 07:41:55;;;;;;;37.03;13.80;;;;;;;16.81;22.36;96020.03;5040360;28;20052;-76
2022/03/26 07:44:21;;;;;;;30.15;14.27;;;;;;;16.79;22.42;96020.28;5059470;28;20133;-77
2022/03/26 07:46:46;;;;;;;24.35;13.65;;;;;;;16.76;22.22;96017.34;5028941;28;20041;-80
2022/03/26 07:49:13;;;;;;;32.90;14.50;;;;;;;16.86;22.59;96019.31;5045448;28;20108;-78
2022/03/26 07:51:38;;;;;;;38.25;14.73;;;;;;;16.94;22.58;96016.28;5028700;28;20032;-77
2022/03/26 07:54:04;;;;;;;25.65;13.52;;;;;;;16.90;22.14;96012.53;5041229;28;20035;-77
2022/03/26 07:56:30;;;;;;;28.77;14.80;;;;;;;16.89;22.24;96026.69;5042537;28;20033;-77
2022/03/26 07:58:57;;;;;;;33.25;13.52;;;;;;;16.71;22.35;96018.03;5021563;28;20111;-78
2022/03/26 08:01:23;;;;;;;36.50;14.60;;;;;;;16.69;22.39;96028.00;5049098;28;20044;-76
2022/03/26 08:03:53;;;;;;;24.90;14.73;;;;;;;16.73;22.50;96018.59;5036614;28;20029;-76
2022/03/26 08:06:21;;;;;;;29.50;15.05;;;;;;;16.79;22.87;96022.91;5022463;28;20511;-76
2022/03/26 08:08:47;;;;;;;29.38;14.95;;;;;;;16.86;22.38;96016.66;5040688;28;20067;-76
2022/03/26 08:11:12;;;;;;;24.73;14.48;;;;;;;16.93;22.19;96018.13;5040406;28;20033;-76
2022/03/26 08:13:38;;;;;;;34.83;15.13;;;;;;;17.01;21.98;96015.06;5056494;28;20037;-76
2022/03/26 08:16:05;;;;;;;26.63;15.43;;;;;;;17.10;22.09;96012.81;5049081;28;20029;-76
2022/03/26 08:18:30;;;;;;;21.75;14.23;;;;;;;17.14;21.86;96018.38;5058899;28;20037;-76
2022/03/26 08:20:56;;;;;;;26.40;15.32;;;;;;;17.17;21.79;96013.41;5069578;28;20037;-77
2022/03/26 08:23:22;;;;;;;36.72;14.70;;;;;;;17.22;21.90;96010.06;5070986;28;20017;-76
2022/03/26 08:28:31;;;;;;;40.67;15.07;;;;;;;17.20;21.81;96007.66;5030191;28;20111;-75
2022/03/26 08:30:59;;;;;;;24.88;15.20;;;;;;;17.33;21.68;96009.94;5030123;28;20108;-75
2022/03/26 08:33:25;;;;;;;34.42;15.02;;;;;;;17.39;21.44;96006.31;5014606;28;20536;-77
2022/03/26 08:35:51;;;;;;;41.78;14.90;;;;;;;17.32;21.38;96010.97;5014990;28;20033;-76
2022/03/26 08:38:16;;;;;;;31.63;14.82;;;;;;;17.35;22.14;96004.44;5010737;28;20060;-76
2022/03/26 08:40:42;;;;;;;31.25;13.82;;;;;;;17.37;21.48;96003.16;5015581;28;20025;-76
2022/03/26 08:43:08;;;;;;;38.30;15.35;;;;;;;17.18;21.29;95993.19;5015825;28;20033;-76
2022/03/26 08:45:35;;;;;;;37.40;15.30;;;;;;;16.89;21.67;96000.41;5019415;28;20033;-76
2022/03/26 08:48:01;;;;;;;33.85;14.85;;;;;;;16.74;22.15;95991.28;5035971;28;20108;-76
2022/03/26 08:50:26;;;;;;;28.92;15.02;;;;;;;16.83;22.62;95996.16;5020373;28;20075;-76
2022/03/26 08:52:52;;;;;;;26.13;15.63;;;;;;;16.98;22.06;95985.84;5026962;28;20037;-76
2022/03/26 08:55:18;;;;;;;43.20;16.80;;;;;;;16.99;21.79;95984.81;5016111;28;20156;-76
2022/03/26 08:57:43;;;;;;;38.33;15.88;;;;;;;17.00;21.61;95975.88;5033677;28;20068;-76
2022/03/26 09:00:10;;;;;;;37.83;15.35;;;;;;;17.11;21.84;95980.25;5033499;28;20030;-76
2022/03/26 09:02:36;;;;;;;39.60;14.15;;;;;;;17.15;21.46;95978.72;5015963;28;20440;-76
2022/03/26 09:05:02;;;;;;;41.03;16.63;;;;;;;17.24;21.59;95979.06;5001388;28;20030;-76
2022/03/26 09:07:27;;;;;;;31.42;16.17;;;;;;;17.24;21.52;95979.84;5051244;28;20087;-75
2022/03/26 09:09:53;;;;;;;27.48;14.88;;;;;;;17.26;21.51;95974.38;5030338;28;20112;-75
2022/03/26 09:12:18;;;;;;;28.67;13.57;;;;;;;17.29;21.33;95969.41;4999241;28;20036;-75
2022/03/26 09:14:44;;;;;;;37.33;16.08;;;;;;;17.15;21.51;95970.81;5010225;28;20037;-75
2022/03/26 09:17:09;;;;;;;26.27;14.88;;;;;;;17.19;21.62;95968.50;5053900;28;20032;-76
2022/03/26 09:19:35;;;;;;;32.88;14.45;;;;;;;17.08;21.99;95964.94;5021357;28;20044;-75
2022/03/26 09:22:01;;;;;;;28.83;13.82;;;;;;;17.03;22.01;95970.13;5020517;28;20126;-75
2022/03/26 09:24:26;;;;;;;26.45;13.48;;;;;;;17.05;22.24;95962.78;5018883;28;20500;-76
2022/03/26 09:26:52;;;;;;;37.67;12.95;;;;;;;16.94;22.39;95951.38;5036123;28;20112;-77
2022/03/26 09:29:17;;;;;;;23.55;8.98;;;;;;;16.67;23.90;95961.00;5036046;28;20033;-75
2022/03/26 09:31:43;;;;;;;26.25;10.98;;;;;;;16.39;23.97;95954.78;5031420;28;20412;-75
2022/03/26 09:34:08;;;;;;;22.17;11.82;;;;;;;16.29;23.84;95949.41;5034643;28;20025;-77
2022/03/26 09:36:34;;;;;;;27.00;11.60;;;;;;;16.23;24.12;95955.59;5018629;28;20408;-77
2022/03/26 09:38:59;;;;;;;13.35;7.95;;;;;;;16.04;23.98;95941.13;5018350;28;20056;-76
2022/03/26 09:41:24;;;;;;;20.63;7.47;;;;;;;15.86;22.89;95945.56;5035122;28;20404;-76
2022/03/26 09:43:50;;;;;;;11.50;8.05;;;;;;;15.56;23.96;95939.75;5018397;28;20500;-76
2022/03/26 09:46:17;;;;;;;19.20;8.88;;;;;;;15.30;24.88;95931.44;5018228;28;20033;-77
2022/03/26 09:48:43;;;;;;;11.63;7.80;;;;;;;15.19;24.76;95926.22;5050192;28;20477;-75
2022/03/26 09:51:09;;;;;;;14.13;8.05;;;;;;;14.94;25.20;95937.78;4998930;28;20092;-76
2022/03/26 09:53:34;;;;;;;20.50;9.20;;;;;;;14.75;25.31;95938.94;5033053;28;20064;-76
2022/03/26 09:56:00;;;;;;;20.40;9.57;;;;;;;14.81;25.23;95932.03;5018206;28;20025;-82
2022/03/26 09:58:28;;;;;;;14.82;9.35;;;;;;;14.79;26.34;95934.03;5024139;28;20029;-81
2022/03/26 10:00:55;;;;;;;18.92;8.80;;;;;;;14.82;26.03;95926.56;5025801;28;20060;-79
2022/03/26 10:03:21;;;;;;;19.38;8.77;;;;;;;14.49;26.55;95935.00;5025998;28;20409;-80
2022/03/26 10:05:46;;;;;;;14.77;7.68;;;;;;;14.37;26.80;95924.50;5025498;28;20029;-79
2022/03/26 10:08:23;;;;;;;15.95;8.02;;;;;;;14.45;26.41;95925.19;5041748;28;20028;-78
2022/03/26 10:10:50;;;;;;;15.73;8.23;;;;;;;14.57;26.88;95915.53;5005973;28;20069;-79
2022/03/26 10:13:38;;;;;;;21.85;8.65;;;;;;;14.82;28.31;95916.06;5037149;28;20029;-78
2022/03/26 10:16:11;;;;;;;14.75;9.35;;;;;;;15.05;28.14;95903.94;5053375;28;20029;-77
2022/03/26 10:18:46;;;;;;;28.10;9.13;;;;;;;15.22;26.25;95907.41;5058606;28;20473;-73
2022/03/26 10:21:16;;;;;;;26.85;9.48;;;;;;;15.31;25.65;95900.78;5021827;28;20037;-80
2022/03/26 10:23:45;;;;;;;17.98;9.20;;;;;;;15.38;26.61;95901.41;5005824;28;20053;-79
2022/03/26 10:26:15;;;;;;;18.38;8.15;;;;;;;15.47;26.69;95897.41;5055336;28;20029;-79
2022/03/26 10:28:41;;;;;;;23.00;8.13;;;;;;;15.48;26.02;95896.38;5012602;28;20033;-78
2022/03/26 10:34:08;;;;;;;15.10;6.88;;;;;;;15.45;27.05;95888.94;5025900;28;20040;-78
2022/03/26 10:36:57;;;;;;;12.18;7.38;;;;;;;15.48;26.29;95885.88;5021813;28;20021;-78
2022/03/26 10:39:24;;;;;;;17.15;7.55;;;;;;;15.58;26.86;95886.03;5020568;28;20036;-78
2022/03/26 10:41:50;;;;;;;15.77;7.28;;;;;;;15.66;25.15;95886.72;5034541;28;20512;-78
2022/03/26 10:44:17;;;;;;;9.70;6.93;;;;;;;15.45;25.51;95881.09;5026877;28;20036;-78
2022/03/26 10:46:59;;;;;;;9.23;6.90;;;;;;;15.39;26.25;95876.00;5047586;28;20037;-79
2022/03/26 10:49:31;;;;;;;19.48;7.35;;;;;;;15.50;25.65;95873.31;5029887;28;20039;-78
2022/03/26 10:52:18;;;;;;;17.58;7.65;;;;;;;15.30;25.49;95872.97;5052203;28;20112;-79
2022/03/26 10:54:46;;;;;;;14.60;7.22;;;;;;;14.88;27.03;95865.38;5025021;28;20477;-78
2022/03/26 10:57:12;;;;;;;12.15;7.93;;;;;;;14.97;26.50;95869.25;5016840;28;20025;-78
2022/03/26 10:59:37;;;;;;;13.75;7.18;;;;;;;14.98;26.13;95862.97;5058709;28;20036;-78
2022/03/26 11:02:03;;;;;;;18.08;7.15;;;;;;;14.94;25.99;95863.66;5040312;28;20416;-78
2022/03/26 11:04:29;;;;;;;16.90;7.18;;;;;;;14.94;26.63;95855.78;5050518;28;20058;-79
2022/03/26 11:06:57;;;;;;;14.38;7.25;;;;;;;15.08;26.31;95853.69;5050263;28;20032;-79
2022/03/26 11:09:23;;;;;;;12.80;7.82;;;;;;;15.06;26.42;95840.84;5052547;28;20048;-78
2022/03/26 11:11:48;;;;;;;12.75;7.50;;;;;;;15.04;27.13;95842.09;5072263;28;20463;-78
2022/03/26 11:14:17;;;;;;;19.92;7.43;;;;;;;15.18;25.99;95838.16;5036068;28;20055;-78
2022/03/26 11:17:20;;;;;;;16.85;7.15;;;;;;;15.30;26.42;95836.28;5048485;28;20043;-78
2022/03/26 11:19:58;;;;;;;12.00;5.88;;;;;;;15.47;24.26;95825.81;5049418;28;20672;-78
2022/03/26 11:22:32;;;;;;;15.48;5.03;;;;;;;15.61;23.96;95838.41;5064850;28;20412;-78
2022/03/26 11:25:08;;;;;;;14.02;6.15;;;;;;;15.65;23.62;95814.34;5064649;28;20044;-78
2022/03/26 11:27:56;;;;;;;12.98;5.65;;;;;;;15.67;23.94;95820.94;5049120;28;20039;-79